Time;durP1;ratioP1;P1;durP2;ratioP2;P2;SDS_P1;SDS_P2;PMS_P1;PMS_P2;Temp;Humidity;BMP_temperature;BMP_pressure;BME280_temperature;BME280_humidity;BME280_pressure;Samples;Min_cycle;Max_cycle;Signal;HPM_P1;HPM_P2
2022/09/30 00:00:13;;;;;;;7.60;6.90;;;10.90;99.90;;;;;;5014779;28;20676;-67
2022/09/30 00:02:39;;;;;;;7.20;6.60;;;11.00;99.90;;;;;;5013746;28;20759;-67
2022/09/30 00:05:05;;;;;;;7.43;6.83;;;10.80;99.90;;;;;;5015303;28;20270;-66
2022/09/30 00:07:30;;;;;;;7.90;7.20;;;10.80;99.90;;;;;;5012841;28;20189;-67
2022/09/30 00:09:56;;;;;;;8.57;6.80;;;10.80;99.90;;;;;;5013805;28;20440;-66
2022/09/30 00:12:22;;;;;;;7.97;7.27;;;10.80;99.90;;;;;;5013697;28;20208;-66
2022/09/30 00:14:47;;;;;;;8.27;7.47;;;10.80;99.90;;;;;;5013917;28;20185;-66
2022/09/30 00:17:13;;;;;;;7.77;7.00;;;10.80;99.90;;;;;;5014179;28;20191;-66
2022/09/30 00:19:39;;;;;;;7.73;7.23;;;10.70;99.90;;;;;;5012876;28;20268;-67
2022/09/30 00:22:05;;;;;;;9.20;8.17;;;10.70;99.90;;;;;;5014185;28;20191;-66
2022/09/30 00:24:31;;;;;;;7.90;7.20;;;10.70;99.90;;;;;;4997199;28;20629;-66
2022/09/30 00:26:56;;;;;;;7.40;6.70;;;10.80;99.90;;;;;;5013650;28;20437;-66
2022/09/30 00:29:22;;;;;;;7.43;6.80;;;10.80;99.90;;;;;;5014933;28;20264;-66
2022/09/30 00:31:47;;;;;;;7.87;7.17;;;10.80;99.90;;;;;;5013904;28;20194;-66
2022/09/30 00:34:13;;;;;;;7.40;6.80;;;10.80;99.90;;;;;;5013807;28;20625;-67
2022/09/30 00:36:54;;;;;;;12.90;7.77;;;10.80;99.90;;;;;;5012380;28;20192;-66
2022/09/30 00:39:25;;;;;;;8.20;7.40;;;10.70;99.90;;;;;;5007886;28;20638;-66
2022/09/30 00:41:55;;;;;;;6.97;6.37;;;10.70;99.90;;;;;;5013213;28;20786;-67
2022/09/30 00:45:05;;;;;;;7.20;6.60;;;10.60;99.90;;;;;;5014269;28;20913;-66
2022/09/30 00:47:39;;;;;;;7.10;6.50;;;10.60;99.90;;;;;;5011066;28;20502;-66
2022/09/30 00:50:15;;;;;;;7.50;6.80;;;10.70;99.90;;;;;;5014226;28;20900;-66
2022/09/30 00:52:44;;;;;;;7.30;6.60;;;10.60;99.90;;;;;;5012985;28;20971;-67
2022/09/30 00:55:26;;;;;;;8.07;7.30;;;10.60;99.90;;;;;;5013687;28;20548;-66
2022/09/30 00:57:52;;;;;;;8.20;7.20;;;10.60;99.90;;;;;;5011836;28;20437;-70
2022/09/30 01:00:18;;;;;;;8.00;7.23;;;10.60;99.90;;;;;;4996160;28;20463;-66
2022/09/30 01:02:46;;;;;;;7.90;7.30;;;10.50;99.90;;;;;;5012113;28;20436;-67
2022/09/30 01:05:12;;;;;;;9.90;9.00;;;10.50;99.90;;;;;;5012937;28;20468;-66
2022/09/30 01:07:38;;;;;;;9.90;8.20;;;10.50;99.90;;;;;;5012300;28;20803;-67
2022/09/30 01:10:04;;;;;;;9.00;8.20;;;10.50;99.90;;;;;;5013502;28;20443;-66
2022/09/30 01:12:30;;;;;;;8.83;8.00;;;10.50;99.90;;;;;;5012451;28;20211;-66
2022/09/30 01:14:58;;;;;;;9.63;8.63;;;10.50;99.90;;;;;;5012713;28;20415;-66
2022/09/30 01:17:27;;;;;;;8.40;7.67;;;10.50;99.90;;;;;;5013235;28;20506;-66
2022/09/30 01:20:29;;;;;;;9.63;7.27;;;10.50;99.90;;;;;;5012749;28;20446;-66
2022/09/30 01:23:07;;;;;;;10.00;7.87;;;10.50;99.90;;;;;;5011664;28;20431;-66
2022/09/30 01:26:08;;;;;;;8.43;7.50;;;10.50;99.90;;;;;;5013880;28;20416;-66
2022/09/30 01:29:13;;;;;;;8.33;7.40;;;10.40;99.90;;;;;;5010052;28;20533;-66
2022/09/30 01:31:59;;;;;;;8.23;7.50;;;10.40;99.90;;;;;;5009594;28;20425;-69
2022/09/30 01:34:43;;;;;;;10.37;7.33;;;10.40;99.90;;;;;;5012414;28;20445;-66
2022/09/30 01:37:21;;;;;;;8.47;6.80;;;10.40;99.90;;;;;;5012999;28;20439;-66
2022/09/30 01:39:59;;;;;;;7.83;7.23;;;10.40;99.90;;;;;;5012265;28;20525;-67
2022/09/30 01:43:04;;;;;;;8.30;7.60;;;10.40;99.90;;;;;;5012853;28;20445;-66
2022/09/30 01:45:37;;;;;;;7.43;6.83;;;10.30;99.90;;;;;;4996738;28;20453;-66
2022/09/30 01:48:17;;;;;;;9.37;6.97;;;10.30;99.90;;;;;;5012717;28;20937;-66
2022/09/30 01:50:50;;;;;;;7.40;6.70;;;10.30;99.90;;;;;;5012387;28;20402;-66
2022/09/30 01:53:34;;;;;;;6.80;6.20;;;10.30;99.90;;;;;;5012089;28;21003;-66
2022/09/30 01:56:11;;;;;;;6.80;6.20;;;10.30;99.90;;;;;;5012121;28;20473;-66
2022/09/30 01:58:51;;;;;;;7.80;6.30;;;10.30;99.90;;;;;;5012674;28;20439;-66
2022/09/30 02:01:41;;;;;;;5.90;5.40;;;10.30;99.90;;;;;;5012145;28;20446;-66
2022/09/30 02:04:13;;;;;;;6.30;5.80;;;10.30;99.90;;;;;;5010826;28;20494;-66
2022/09/30 02:06:43;;;;;;;7.57;6.87;;;10.40;99.90;;;;;;5012883;28;20543;-66
2022/09/30 02:09:14;;;;;;;7.70;6.23;;;10.30;99.90;;;;;;5012038;28;20808;-66
2022/09/30 02:11:41;;;;;;;6.97;6.30;;;10.40;99.90;;;;;;4995068;28;21004;-74
2022/09/30 02:14:22;;;;;;;6.30;5.70;;;10.30;99.90;;;;;;5012459;28;20524;-66
2022/09/30 02:17:02;;;;;;;6.73;6.13;;;10.30;99.90;;;;;;5011932;28;20439;-66
2022/09/30 02:19:42;;;;;;;6.60;5.90;;;10.30;99.90;;;;;;5012371;28;20449;-66
2022/09/30 02:22:16;;;;;;;5.60;5.13;;;10.30;99.90;;;;;;5012533;28;20436;-66
2022/09/30 02:24:44;;;;;;;6.57;5.97;;;10.30;99.90;;;;;;5010497;28;20434;-70
2022/09/30 02:27:18;;;;;;;6.90;5.40;;;10.20;99.90;;;;;;5012082;28;20447;-66
2022/09/30 02:29:49;;;;;;;6.20;5.70;;;10.20;99.90;;;;;;5010469;28;20472;-66
2022/09/30 02:32:32;;;;;;;6.07;5.63;;;10.20;99.90;;;;;;5011747;28;20451;-67
2022/09/30 02:35:09;;;;;;;6.73;6.10;;;10.30;99.90;;;;;;5009435;28;20466;-66
2022/09/30 02:37:38;;;;;;;6.30;5.90;;;10.20;99.90;;;;;;5012773;28;20399;-66
2022/09/30 02:40:09;;;;;;;6.80;5.77;;;10.20;99.90;;;;;;5012156;28;20411;-66
2022/09/30 02:42:35;;;;;;;5.80;5.30;;;10.10;99.90;;;;;;5012821;28;20428;-66
2022/09/30 02:45:07;;;;;;;5.90;5.50;;;10.20;99.90;;;;;;5011322;28;20430;-66
2022/09/30 02:48:15;;;;;;;6.40;5.90;;;10.10;99.90;;;;;;5012470;28;20466;-66
2022/09/30 02:51:14;;;;;;;6.20;5.70;;;10.10;99.90;;;;;;5010538;28;20425;-66
2022/09/30 02:53:51;;;;;;;6.07;5.47;;;10.10;99.90;;;;;;5006263;28;20569;-66
2022/09/30 02:56:26;;;;;;;7.00;6.40;;;10.10;99.90;;;;;;5012041;28;20442;-66
2022/09/30 02:58:55;;;;;;;6.53;6.03;;;10.10;99.90;;;;;;5011310;28;20945;-66
2022/09/30 03:01:21;;;;;;;6.60;6.10;;;10.00;99.90;;;;;;5012233;28;20410;-66
2022/09/30 03:04:01;;;;;;;6.50;6.00;;;10.00;99.90;;;;;;5011569;28;20407;-75
2022/09/30 03:06:28;;;;;;;7.23;6.60;;;10.00;99.90;;;;;;5011594;28;20862;-66
2022/09/30 03:08:53;;;;;;;6.10;5.60;;;10.00;99.90;;;;;;5009837;28;20838;-66
2022/09/30 03:11:23;;;;;;;6.37;5.93;;;10.00;99.90;;;;;;5012805;28;20414;-65
2022/09/30 03:14:24;;;;;;;7.20;6.63;;;10.00;99.90;;;;;;5011832;28;20227;-66
2022/09/30 03:17:08;;;;;;;7.43;6.73;;;9.90;99.90;;;;;;5011546;28;20415;-66
2022/09/30 03:20:10;;;;;;;7.37;6.67;;;9.90;99.90;;;;;;5009062;28;20442;-66
2022/09/30 03:22:42;;;;;;;6.53;5.93;;;9.90;99.90;;;;;;5011787;28;20422;-67
2022/09/30 03:25:36;;;;;;;8.80;5.90;;;9.90;99.90;;;;;;5011759;28;20813;-66
2022/09/30 03:28:26;;;;;;;6.73;6.13;;;9.90;99.90;;;;;;5011784;28;20407;-65
2022/09/30 03:31:01;;;;;;;7.47;6.87;;;9.80;99.90;;;;;;5011950;28;20422;-66
2022/09/30 03:33:38;;;;;;;6.47;5.97;;;9.90;99.90;;;;;;5011954;28;20446;-66
2022/09/30 03:36:42;;;;;;;7.87;7.20;;;9.80;99.90;;;;;;5010700;28;20442;-66
2022/09/30 03:39:25;;;;;;;8.60;7.70;;;9.80;99.90;;;;;;4942309;28;20427;-66
2022/09/30 03:42:09;;;;;;;8.90;8.20;;;9.90;99.90;;;;;;5006967;28;20439;-66
2022/09/30 03:45:03;;;;;;;9.37;8.57;;;9.80;99.90;;;;;;5011417;28;20904;-66
2022/09/30 03:47:33;;;;;;;8.00;7.40;;;9.80;99.90;;;;;;5007612;28;20473;-66
2022/09/30 03:50:02;;;;;;;12.10;10.10;;;9.90;99.90;;;;;;5000331;28;20442;-66
2022/09/30 03:52:31;;;;;;;9.13;8.43;;;9.90;99.90;;;;;;4996132;28;20973;-66
2022/09/30 03:54:59;;;;;;;7.60;7.00;;;9.80;99.90;;;;;;4979016;28;20486;-66
2022/09/30 03:57:29;;;;;;;6.80;6.30;;;9.90;99.90;;;;;;4944757;28;20470;-66
2022/09/30 03:59:56;;;;;;;7.10;6.40;;;9.90;99.90;;;;;;5013568;28;20438;-66
2022/09/30 04:02:23;;;;;;;6.87;6.27;;;9.80;99.90;;;;;;4934849;29;20425;-67
2022/09/30 04:04:49;;;;;;;7.77;7.07;;;9.80;99.90;;;;;;4934631;29;20466;-66
2022/09/30 04:07:15;;;;;;;7.70;7.00;;;9.80;99.90;;;;;;4935595;29;20418;-66
2022/09/30 04:09:41;;;;;;;6.97;6.37;;;9.80;99.90;;;;;;4935526;29;20481;-66
2022/09/30 04:12:07;;;;;;;7.50;6.70;;;9.70;99.90;;;;;;4934630;29;20556;-66
2022/09/30 04:14:34;;;;;;;6.27;5.80;;;9.70;99.90;;;;;;4935340;29;20420;-66
2022/09/30 04:17:00;;;;;;;7.60;6.80;;;9.80;99.90;;;;;;4935002;29;20190;-66
2022/09/30 04:19:25;;;;;;;7.47;6.87;;;9.70;99.90;;;;;;4935341;29;20891;-66
2022/09/30 04:21:52;;;;;;;6.77;6.17;;;9.80;99.90;;;;;;4933801;29;20434;-66
2022/09/30 04:24:19;;;;;;;7.07;6.50;;;9.70;99.90;;;;;;4918905;29;20197;-66
2022/09/30 04:26:45;;;;;;;7.17;6.57;;;9.70;99.90;;;;;;4935171;29;20425;-66
2022/09/30 04:29:11;;;;;;;7.23;6.67;;;9.70;99.90;;;;;;4934521;29;20465;-66
2022/09/30 04:31:36;;;;;;;7.30;6.60;;;9.70;99.90;;;;;;4934170;29;20190;-66
2022/09/30 04:34:02;;;;;;;7.20;6.60;;;9.70;99.90;;;;;;4996993;28;20705;-66
2022/09/30 04:36:28;;;;;;;8.20;7.60;;;9.70;99.90;;;;;;5012332;28;20186;-66
2022/09/30 04:38:54;;;;;;;6.63;6.00;;;9.70;99.90;;;;;;5012825;28;20184;-66
2022/09/30 04:41:20;;;;;;;6.87;6.27;;;9.60;99.90;;;;;;5013084;28;20181;-66
2022/09/30 04:43:47;;;;;;;6.57;5.97;;;9.70;99.90;;;;;;5014754;28;20188;-66
2022/09/30 04:46:14;;;;;;;7.03;6.33;;;9.70;99.90;;;;;;5013721;28;20419;-66
2022/09/30 04:48:44;;;;;;;9.70;9.00;;;9.60;99.90;;;;;;5014272;28;20956;-66
2022/09/30 04:51:11;;;;;;;8.57;7.90;;;9.70;99.90;;;;;;5013879;28;20502;-66
2022/09/30 04:53:38;;;;;;;9.30;8.40;;;9.60;99.90;;;;;;5012345;28;20971;-66
2022/09/30 04:56:05;;;;;;;7.30;6.60;;;9.60;99.90;;;;;;5013190;28;20750;-66
2022/09/30 04:58:33;;;;;;;7.60;6.90;;;9.60;99.90;;;;;;5014091;28;20403;-66
2022/09/30 05:01:04;;;;;;;8.03;7.00;;;9.60;99.90;;;;;;5009568;28;20993;-66
2022/09/30 05:03:30;;;;;;;9.03;6.90;;;9.70;99.90;;;;;;5003894;28;20441;-66
2022/09/30 05:05:56;;;;;;;8.73;7.43;;;9.70;99.90;;;;;;5026642;28;20851;-66
2022/09/30 05:08:22;;;;;;;7.87;7.27;;;9.60;99.90;;;;;;5033511;28;20425;-66
2022/09/30 05:10:58;;;;;;;8.27;7.47;;;9.70;99.90;;;;;;5033473;28;20452;-66
2022/09/30 05:13:28;;;;;;;7.80;7.10;;;9.60;99.90;;;;;;5033577;28;20276;-66
2022/09/30 05:15:54;;;;;;;7.33;6.73;;;9.60;99.90;;;;;;5031818;28;20428;-73
2022/09/30 05:18:21;;;;;;;8.13;7.47;;;9.70;99.90;;;;;;5033380;28;20791;-66
2022/09/30 05:20:50;;;;;;;8.00;7.23;;;9.60;99.90;;;;;;5032793;28;20197;-66
2022/09/30 05:23:17;;;;;;;9.60;8.73;;;9.50;99.90;;;;;;5012580;28;20430;-66
2022/09/30 05:25:43;;;;;;;9.80;7.27;;;9.50;99.90;;;;;;5032497;28;20440;-66
2022/09/30 05:28:09;;;;;;;7.93;7.13;;;9.50;99.90;;;;;;5013655;28;20433;-66
2022/09/30 05:30:34;;;;;;;9.43;8.70;;;9.50;99.90;;;;;;5031557;28;20613;-66
2022/09/30 05:33:00;;;;;;;8.67;7.87;;;9.40;99.90;;;;;;5024887;28;20210;-66
2022/09/30 05:35:26;;;;;;;9.07;8.37;;;9.50;99.90;;;;;;5033341;28;20767;-66
2022/09/30 05:37:52;;;;;;;8.10;7.30;;;9.50;99.90;;;;;;5032656;28;20633;-71
2022/09/30 05:40:20;;;;;;;8.97;8.13;;;9.40;99.90;;;;;;5014831;28;20458;-66
2022/09/30 05:42:46;;;;;;;7.37;6.77;;;9.40;99.90;;;;;;5032594;28;20296;-66
2022/09/30 05:45:12;;;;;;;9.17;8.47;;;9.50;99.90;;;;;;5032551;28;20464;-66
2022/09/30 05:47:38;;;;;;;10.00;9.10;;;9.50;99.90;;;;;;5032005;28;20437;-66
2022/09/30 05:50:05;;;;;;;10.47;9.40;;;9.60;99.90;;;;;;5028090;28;20484;-66
2022/09/30 05:52:31;;;;;;;9.57;8.77;;;9.50;99.90;;;;;;5032241;28;20659;-66
2022/09/30 05:54:59;;;;;;;10.00;9.00;;;9.50;99.90;;;;;;5031291;28;20512;-66
2022/09/30 05:57:27;;;;;;;9.37;8.40;;;9.50;99.90;;;;;;5031633;28;20779;-68
2022/09/30 05:59:55;;;;;;;10.37;9.37;;;9.50;99.90;;;;;;5031155;28;20433;-76
2022/09/30 06:02:20;;;;;;;9.50;8.57;;;9.50;99.90;;;;;;5032330;28;20475;-66
2022/09/30 06:04:46;;;;;;;9.23;8.33;;;9.50;99.90;;;;;;5015153;28;21037;-66
2022/09/30 06:07:12;;;;;;;10.13;9.20;;;9.60;99.90;;;;;;4955083;28;20185;-66
2022/09/30 06:09:38;;;;;;;10.60;9.43;;;9.60;99.90;;;;;;4954384;28;20445;-66
2022/09/30 06:12:05;;;;;;;9.80;9.00;;;9.60;99.90;;;;;;4935437;28;20457;-66
2022/09/30 06:14:31;;;;;;;10.30;9.30;;;9.70;99.90;;;;;;4952466;29;20421;-66
2022/09/30 06:16:59;;;;;;;11.40;8.50;;;9.70;99.90;;;;;;4954781;28;20504;-66
2022/09/30 06:19:27;;;;;;;9.20;8.30;;;9.70;99.90;;;;;;4955676;28;20448;-66
2022/09/30 06:21:56;;;;;;;10.57;9.53;;;9.80;99.90;;;;;;4951593;28;20440;-66
2022/09/30 06:24:21;;;;;;;12.07;11.03;;;9.80;99.90;;;;;;4954021;28;20433;-66
2022/09/30 06:26:47;;;;;;;10.23;9.33;;;9.80;99.90;;;;;;4952183;29;20521;-66
2022/09/30 06:29:13;;;;;;;8.63;7.93;;;9.80;99.90;;;;;;4951788;29;20236;-65
2022/09/30 06:31:39;;;;;;;8.63;7.67;;;9.80;99.90;;;;;;4876300;29;20416;-66
2022/09/30 06:34:05;;;;;;;9.00;8.20;;;9.90;99.90;;;;;;4875701;29;20818;-66
2022/09/30 06:36:32;;;;;;;10.53;9.53;;;9.90;99.90;;;;;;4876959;29;20429;-68
2022/09/30 06:39:00;;;;;;;10.00;9.10;;;10.20;99.90;;;;;;4938692;29;20541;-68
2022/09/30 06:41:26;;;;;;;9.10;8.30;;;10.50;99.90;;;;;;4951498;29;20441;-68
2022/09/30 06:43:52;;;;;;;9.03;7.97;;;11.20;99.90;;;;;;4949933;29;20500;-68
2022/09/30 06:46:20;;;;;;;9.80;8.90;;;11.70;99.90;;;;;;4950904;29;20468;-68
2022/09/30 06:48:45;;;;;;;9.80;8.90;;;12.10;99.90;;;;;;4951188;29;20479;-68
2022/09/30 06:51:11;;;;;;;9.40;8.50;;;12.60;99.90;;;;;;4951503;29;20441;-68
2022/09/30 06:53:38;;;;;;;8.53;7.90;;;12.90;99.90;;;;;;4867416;29;20246;-68
2022/09/30 06:56:05;;;;;;;11.70;10.73;;;13.20;99.90;;;;;;4943038;29;20219;-68
2022/09/30 06:58:31;;;;;;;9.47;8.43;;;13.60;99.90;;;;;;4950471;29;20430;-69
2022/09/30 07:01:02;;;;;;;9.00;8.07;;;13.70;99.90;;;;;;4935176;29;20463;-77
2022/09/30 07:03:32;;;;;;;10.17;9.20;;;13.90;99.90;;;;;;5013263;28;20886;-68
2022/09/30 07:06:03;;;;;;;9.50;8.60;;;14.10;99.90;;;;;;5024639;28;20447;-71
2022/09/30 07:08:31;;;;;;;10.80;9.90;;;14.20;99.70;;;;;;5025085;28;20511;-68
2022/09/30 07:10:58;;;;;;;9.93;9.03;;;14.30;99.00;;;;;;5023076;28;20416;-68
2022/09/30 07:13:24;;;;;;;9.73;8.80;;;14.50;98.10;;;;;;5027640;28;20456;-69
2022/09/30 07:15:53;;;;;;;10.57;9.30;;;14.50;99.80;;;;;;5007015;28;20440;-68
2022/09/30 07:18:20;;;;;;;9.87;9.07;;;14.60;98.40;;;;;;5025894;28;20517;-66
2022/09/30 07:20:53;;;;;;;12.90;10.50;;;14.70;97.80;;;;;;5020350;28;20414;-69
2022/09/30 07:23:21;;;;;;;10.10;9.10;;;14.80;96.70;;;;;;5024657;28;20444;-68
2022/09/30 07:25:53;;;;;;;12.30;11.10;;;14.80;96.30;;;;;;5030901;28;20426;-67
2022/09/30 07:28:19;;;;;;;11.77;9.70;;;14.80;95.50;;;;;;5033827;28;20854;-68
2022/09/30 07:30:46;;;;;;;13.77;12.70;;;14.80;95.90;;;;;;5018225;28;20409;-69
2022/09/30 07:33:15;;;;;;;21.13;14.57;;;14.90;96.10;;;;;;5034848;28;20532;-68
2022/09/30 07:35:51;;;;;;;14.23;12.20;;;15.00;98.90;;;;;;5035595;28;20420;-68
2022/09/30 07:38:18;;;;;;;14.10;11.90;;;15.20;99.10;;;;;;5034967;28;20405;-67
2022/09/30 07:41:15;;;;;;;11.20;10.30;;;15.30;97.40;;;;;;5035550;28;20406;-68
2022/09/30 07:43:45;;;;;;;11.37;10.23;;;15.40;96.50;;;;;;5034663;28;20437;-68
2022/09/30 07:46:16;;;;;;;11.93;10.73;;;15.40;95.70;;;;;;5034756;28;20413;-69
2022/09/30 07:48:47;;;;;;;164.33;104.90;;;15.50;95.30;;;;;;5035170;28;20418;-68
2022/09/30 07:51:13;;;;;;;83.13;63.63;;;15.60;95.40;;;;;;5034760;28;20415;-68
2022/09/30 07:53:40;;;;;;;409.27;266.73;;;15.50;95.70;;;;;;5034601;28;20449;-68
2022/09/30 07:56:07;;;;;;;438.40;301.73;;;15.60;95.70;;;;;;5034001;28;20441;-69
2022/09/30 07:58:34;;;;;;;54.30;39.27;;;15.70;95.50;;;;;;5035062;28;20411;-69
2022/09/30 08:00:59;;;;;;;15.60;13.97;;;15.70;95.40;;;;;;5021906;28;20467;-69
2022/09/30 08:03:28;;;;;;;14.67;13.30;;;15.80;95.90;;;;;;5030947;28;20427;-68
2022/09/30 08:05:53;;;;;;;14.20;12.00;;;15.80;95.50;;;;;;5034680;28;20459;-69
2022/09/30 08:08:19;;;;;;;14.03;12.63;;;15.80;95.10;;;;;;5034338;28;20426;-68
2022/09/30 08:10:47;;;;;;;11.63;10.60;;;15.90;95.20;;;;;;5033919;28;20260;-69
2022/09/30 08:13:13;;;;;;;14.13;12.03;;;15.90;95.60;;;;;;5023863;28;20209;-68
2022/09/30 08:15:39;;;;;;;14.73;13.37;;;16.00;95.40;;;;;;4965141;28;20950;-68
2022/09/30 08:18:05;;;;;;;12.50;11.30;;;16.00;95.50;;;;;;4964927;28;20482;-69
2022/09/30 08:20:30;;;;;;;552.20;357.00;;;16.10;95.40;;;;;;4962751;28;20229;-69
2022/09/30 08:22:57;;;;;;;131.97;91.07;;;16.10;95.50;;;;;;4963262;28;20981;-68
2022/09/30 08:25:23;;;;;;;23.13;20.70;;;16.20;95.40;;;;;;4963541;28;20199;-68
2022/09/30 08:27:49;;;;;;;14.50;13.00;;;16.40;95.30;;;;;;4965195;28;20408;-68
2022/09/30 08:30:16;;;;;;;14.30;12.83;;;16.30;95.00;;;;;;4962623;28;20527;-68
2022/09/30 08:32:42;;;;;;;16.00;14.60;;;16.40;95.20;;;;;;4964602;28;21004;-68
2022/09/30 08:35:07;;;;;;;13.87;12.57;;;16.40;95.00;;;;;;4963438;28;20783;-69
2022/09/30 08:37:33;;;;;;;12.17;10.90;;;16.40;95.10;;;;;;4962404;28;20416;-68
2022/09/30 08:39:59;;;;;;;14.43;13.00;;;16.50;95.30;;;;;;4962351;28;20176;-69
2022/09/30 08:42:45;;;;;;;14.37;12.97;;;16.50;95.30;;;;;;4964190;28;20200;-68
2022/09/30 08:45:34;;;;;;;13.27;11.90;;;16.60;95.90;;;;;;4965403;28;20592;-68
2022/09/30 08:48:23;;;;;;;20.53;15.03;;;16.70;95.90;;;;;;5024938;28;20770;-68
2022/09/30 08:51:27;;;;;;;12.40;11.30;;;16.90;95.90;;;;;;5008813;28;20409;-68
2022/09/30 08:53:56;;;;;;;14.40;13.10;;;16.90;95.00;;;;;;5024875;28;20808;-68
2022/09/30 08:56:31;;;;;;;12.87;11.10;;;17.00;95.40;;;;;;5024135;28;20456;-68
2022/09/30 08:59:27;;;;;;;14.30;13.10;;;17.10;95.60;;;;;;5024631;28;20410;-68
2022/09/30 09:01:59;;;;;;;12.47;11.17;;;17.20;95.70;;;;;;5024809;28;20409;-68
2022/09/30 09:04:25;;;;;;;11.37;10.27;;;17.30;95.90;;;;;;5021822;28;20437;-68
2022/09/30 09:06:56;;;;;;;13.60;11.07;;;17.40;95.90;;;;;;5023726;28;20456;-68
2022/09/30 09:09:31;;;;;;;11.93;10.83;;;17.50;95.10;;;;;;5021485;28;20182;-68
2022/09/30 09:12:21;;;;;;;13.77;12.63;;;17.60;95.60;;;;;;5023818;28;20413;-68
2022/09/30 09:14:54;;;;;;;14.07;12.70;;;17.70;95.30;;;;;;5025670;28;20494;-68
2022/09/30 09:18:01;;;;;;;13.40;12.07;;;17.70;95.10;;;;;;5024326;28;20703;-68
2022/09/30 09:20:33;;;;;;;11.87;10.77;;;17.90;95.30;;;;;;5012124;28;20858;-68
2022/09/30 09:23:02;;;;;;;12.57;11.10;;;18.00;95.00;;;;;;5024015;28;20809;-69
2022/09/30 09:25:28;;;;;;;12.67;11.50;;;18.10;94.60;;;;;;5026761;28;20782;-69
2022/09/30 09:28:02;;;;;;;13.70;10.83;;;18.30;95.50;;;;;;5023806;28;20430;-67
2022/09/30 09:30:46;;;;;;;12.27;11.23;;;18.40;95.10;;;;;;5022157;28;20413;-64
2022/09/30 09:33:26;;;;;;;11.67;10.70;;;18.50;94.30;;;;;;5024608;28;20437;-64
2022/09/30 09:36:30;;;;;;;11.20;10.20;;;18.50;94.30;;;;;;5004055;28;20905;-64
2022/09/30 09:39:19;;;;;;;11.87;10.67;;;18.50;94.80;;;;;;5022483;28;20386;-65
2022/09/30 09:42:06;;;;;;;11.90;10.57;;;18.50;94.50;;;;;;5023393;28;20796;-64
2022/09/30 09:44:43;;;;;;;10.27;8.80;;;18.50;94.70;;;;;;5025546;28;20453;-65
2022/09/30 09:47:15;;;;;;;74.57;50.53;;;18.60;93.90;;;;;;5020293;28;20803;-65
2022/09/30 09:49:44;;;;;;;97.33;80.63;;;18.70;92.30;;;;;;5022088;28;20924;-65
2022/09/30 09:52:27;;;;;;;44.63;39.03;;;18.90;90.30;;;;;;5020645;28;20414;-65
2022/09/30 09:54:56;;;;;;;66.23;53.20;;;18.90;90.10;;;;;;5006344;28;20409;-65
2022/09/30 09:57:24;;;;;;;13.23;12.00;;;19.20;89.10;;;;;;5017981;28;20472;-65
2022/09/30 09:59:57;;;;;;;7.97;7.27;;;19.30;87.80;;;;;;5023189;28;20409;-66
2022/09/30 10:02:27;;;;;;;7.97;7.27;;;19.50;90.70;;;;;;5022882;28;20425;-66
2022/09/30 10:05:00;;;;;;;8.80;7.90;;;19.80;87.70;;;;;;5024102;28;20441;-65
2022/09/30 10:07:28;;;;;;;7.70;7.00;;;19.90;85.70;;;;;;5032132;28;20428;-65
2022/09/30 10:10:15;;;;;;;7.30;6.70;;;20.20;85.00;;;;;;5033039;28;20783;-65
2022/09/30 10:12:41;;;;;;;7.13;6.63;;;20.40;84.90;;;;;;5026419;28;20503;-65
2022/09/30 10:15:25;;;;;;;8.30;6.80;;;20.60;81.90;;;;;;5028646;28;20429;-65
2022/09/30 10:17:56;;;;;;;6.50;5.90;;;20.70;83.50;;;;;;5031833;28;20197;-66
2022/09/30 10:20:26;;;;;;;6.87;6.20;;;20.80;82.80;;;;;;5031826;28;20396;-65
2022/09/30 10:23:16;;;;;;;7.47;6.90;;;20.80;77.00;;;;;;5004108;28;20832;-65
2022/09/30 10:26:05;;;;;;;7.50;6.90;;;20.80;80.80;;;;;;5022708;28;20450;-65
2022/09/30 10:28:45;;;;;;;7.27;6.87;;;20.60;77.20;;;;;;5020030;28;20391;-65
2022/09/30 10:31:36;;;;;;;7.30;6.80;;;20.80;80.10;;;;;;5024734;28;20571;-64
2022/09/30 10:34:08;;;;;;;7.73;7.13;;;21.10;79.00;;;;;;5024657;28;20485;-65
2022/09/30 10:36:37;;;;;;;6.43;5.93;;;21.30;79.30;;;;;;5020864;28;20390;-66
2022/09/30 10:39:28;;;;;;;6.47;5.97;;;21.50;76.00;;;;;;5020572;28;20401;-64
2022/09/30 10:42:07;;;;;;;5.97;5.57;;;21.60;73.40;;;;;;5019608;28;20424;-64
2022/09/30 10:44:43;;;;;;;7.10;6.40;;;21.80;72.00;;;;;;5025076;28;20783;-64
2022/09/30 10:47:15;;;;;;;298.27;245.77;;;21.90;72.80;;;;;;5025398;28;20460;-63
2022/09/30 10:49:50;;;;;;;38.97;29.03;;;22.10;76.00;;;;;;5023173;28;20462;-64
2022/09/30 10:52:28;;;;;;;8.87;8.27;;;22.20;73.20;;;;;;5025086;28;20880;-63
2022/09/30 10:54:55;;;;;;;7.40;6.70;;;21.80;69.80;;;;;;5022984;28;20394;-64
2022/09/30 10:57:28;;;;;;;7.27;6.80;;;21.90;73.60;;;;;;5023646;28;20413;-64
2022/09/30 11:00:08;;;;;;;7.07;6.67;;;22.10;71.80;;;;;;5026617;28;20436;-64
2022/09/30 11:02:42;;;;;;;6.60;6.10;;;22.20;70.30;;;;;;5026533;28;20409;-65
2022/09/30 11:05:32;;;;;;;5.90;5.50;;;22.30;70.50;;;;;;5031873;28;20483;-63
2022/09/30 11:08:42;;;;;;;7.80;7.20;;;22.50;69.60;;;;;;5036057;28;20504;-64
2022/09/30 11:11:20;;;;;;;7.77;7.00;;;22.60;69.40;;;;;;4995840;28;20461;-64
2022/09/30 11:13:58;;;;;;;6.73;6.27;;;22.50;68.50;;;;;;5035657;28;20449;-64
2022/09/30 11:16:43;;;;;;;6.20;5.77;;;22.40;65.80;;;;;;5034491;28;20511;-64
2022/09/30 11:19:25;;;;;;;6.60;6.10;;;22.40;67.10;;;;;;5035351;28;20420;-64
2022/09/30 11:22:13;;;;;;;7.70;7.10;;;22.40;66.10;;;;;;5030698;28;20421;-64
2022/09/30 11:24:42;;;;;;;7.40;6.80;;;22.30;63.70;;;;;;5034014;28;20532;-64
2022/09/30 11:27:34;;;;;;;7.53;7.13;;;22.10;69.30;;;;;;5011631;28;20929;-64
2022/09/30 11:30:12;;;;;;;6.70;6.20;;;22.20;69.60;;;;;;5026681;28;20493;-64
2022/09/30 11:32:59;;;;;;;6.50;5.90;;;22.40;67.60;;;;;;5023011;28;20456;-64
2022/09/30 11:35:50;;;;;;;6.73;6.13;;;22.30;66.60;;;;;;5034606;28;20398;-64
2022/09/30 11:38:30;;;;;;;6.37;5.90;;;21.90;65.40;;;;;;5034089;28;20488;-67
2022/09/30 11:41:14;;;;;;;6.30;5.70;;;21.80;67.90;;;;;;5035144;28;20409;-64
2022/09/30 11:44:01;;;;;;;7.73;7.03;;;21.80;67.30;;;;;;5018086;28;20877;-64
2022/09/30 11:46:32;;;;;;;5.73;5.33;;;21.90;65.50;;;;;;5019119;28;20425;-64
2022/09/30 11:49:26;;;;;;;5.80;5.40;;;22.10;66.90;;;;;;5034914;28;20413;-64
2022/09/30 11:51:55;;;;;;;6.83;6.33;;;22.30;67.10;;;;;;5034781;28;20393;-64
2022/09/30 11:54:39;;;;;;;6.10;5.60;;;22.20;66.30;;;;;;5029715;28;20433;-64
2022/09/30 11:57:18;;;;;;;5.70;5.30;;;22.10;66.30;;;;;;5023739;28;20440;-64
2022/09/30 11:59:47;;;;;;;6.03;5.63;;;21.90;66.10;;;;;;5034185;28;20432;-64
2022/09/30 12:02:29;;;;;;;6.00;5.60;;;21.80;66.30;;;;;;5034543;28;20520;-64
2022/09/30 12:05:00;;;;;;;6.20;5.63;;;21.70;65.60;;;;;;5034435;28;20982;-64
2022/09/30 12:07:41;;;;;;;5.67;5.33;;;21.50;64.60;;;;;;5018221;28;20425;-64
2022/09/30 12:10:31;;;;;;;5.53;5.13;;;21.30;68.40;;;;;;5013542;28;20504;-64
2022/09/30 12:13:46;;;;;;;6.30;5.80;;;21.00;66.10;;;;;;5025274;28;20486;-64
2022/09/30 12:16:20;;;;;;;5.77;5.37;;;20.80;67.00;;;;;;5016638;28;20433;-64
2022/09/30 12:18:55;;;;;;;5.47;5.07;;;20.50;65.70;;;;;;5026822;28;20509;-64
2022/09/30 12:21:31;;;;;;;5.87;5.50;;;20.20;65.70;;;;;;5005925;28;20413;-64
2022/09/30 12:24:20;;;;;;;6.20;5.60;;;20.10;67.20;;;;;;5014909;28;20941;-63
2022/09/30 12:26:46;;;;;;;5.60;5.13;;;19.90;68.50;;;;;;5017511;28;20462;-64
2022/09/30 12:32:34;;;;;;;5.90;5.50;;;19.80;69.80;;;;;;5001528;28;20463;-64
2022/09/30 12:35:23;;;;;;;5.70;5.13;;;19.70;70.50;;;;;;4963654;28;20791;-63
2022/09/30 12:38:07;;;;;;;6.67;6.27;;;19.50;69.00;;;;;;4963496;28;20477;-63
2022/09/30 12:40:45;;;;;;;6.60;6.10;;;19.30;69.00;;;;;;5013608;28;20778;-64
2022/09/30 12:43:32;;;;;;;6.63;6.13;;;19.20;70.40;;;;;;5013526;28;20913;-64
2022/09/30 12:46:03;;;;;;;6.47;6.07;;;19.10;70.70;;;;;;5011455;28;20434;-63
2022/09/30 12:48:43;;;;;;;4.60;4.37;;;18.90;71.20;;;;;;5013455;28;20514;-64
2022/09/30 12:51:20;;;;;;;6.80;4.83;;;18.90;70.80;;;;;;5014331;28;20394;-64
2022/09/30 12:53:50;;;;;;;6.20;5.67;;;18.80;72.50;;;;;;5014219;28;20515;-64
2022/09/30 12:56:17;;;;;;;5.53;5.00;;;18.70;71.00;;;;;;5013729;28;20906;-65
2022/09/30 12:58:46;;;;;;;6.37;5.90;;;18.60;72.30;;;;;;5031116;28;20436;-63
2022/09/30 13:01:28;;;;;;;6.90;6.40;;;18.50;73.80;;;;;;5016299;28;20445;-64
2022/09/30 13:04:00;;;;;;;5.70;5.30;;;18.50;73.80;;;;;;5014017;28;20819;-64
2022/09/30 13:06:46;;;;;;;5.43;5.03;;;18.50;73.90;;;;;;5013164;28;20470;-64
2022/09/30 13:09:30;;;;;;;5.87;4.27;;;18.50;73.60;;;;;;4998159;28;21015;-64
2022/09/30 13:11:58;;;;;;;4.70;4.40;;;18.50;74.40;;;;;;5013484;28;20501;-64
2022/09/30 13:14:34;;;;;;;4.77;4.27;;;18.40;73.60;;;;;;5012767;28;20462;-64
2022/09/30 13:17:06;;;;;;;4.83;4.53;;;18.50;74.00;;;;;;5013681;28;20429;-64
2022/09/30 13:19:41;;;;;;;4.53;4.23;;;18.50;74.80;;;;;;5011699;28;20960;-66